sensor_id;sensor_type;location;lat;lon;timestamp;pressure;altitude;pressure_sealevel;temperature
40624;BMP280;26325;48.594;11.650;2023-10-19T16:17:36;94623.44;;;15.01
40624;BMP280;26325;48.594;11.650;2023-10-19T16:20:05;94622.00;;;14.67
40624;BMP280;26325;48.594;11.650;2023-10-19T16:22:35;94614.69;;;14.52
40624;BMP280;26325;48.594;11.650;2023-10-19T16:25:01;94613.97;;;14.35
40624;BMP280;26325;48.594;11.650;2023-10-19T16:27:26;94613.34;;;14.29
40624;BMP280;26325;48.594;11.650;2023-10-19T16:29:53;94610.91;;;14.33
40624;BMP280;26325;48.594;11.650;2023-10-19T16:32:19;94614.41;;;14.37
40624;BMP280;26325;48.594;11.650;2023-10-19T16:34:47;94623.72;;;14.38
40624;BMP280;26325;48.594;11.650;2023-10-19T16:37:12;94626.94;;;14.35
40624;BMP280;26325;48.594;11.650;2023-10-19T16:39:38;94626.03;;;14.31
40624;BMP280;26325;48.594;11.650;2023-10-19T16:42:03;94626.03;;;14.31
40624;BMP280;26325;48.594;11.650;2023-10-19T16:44:29;94624.78;;;14.28
40624;BMP280;26325;48.594;11.650;2023-10-19T16:46:55;94616.88;;;14.25
40624;BMP280;26325;48.594;11.650;2023-10-19T16:49:23;94604.81;;;14.04
40624;BMP280;26325;48.594;11.650;2023-10-19T16:51:49;94590.00;;;14.05
40624;BMP280;26325;48.594;11.650;2023-10-19T16:54:15;94587.88;;;13.90
40624;BMP280;26325;48.594;11.650;2023-10-19T16:56:44;94596.28;;;13.87
40624;BMP280;26325;48.594;11.650;2023-10-19T16:59:16;94598.09;;;13.95
40624;BMP280;26325;48.594;11.650;2023-10-19T17:01:42;94597.81;;;13.96
40624;BMP280;26325;48.594;11.650;2023-10-19T17:04:09;94585.47;;;13.93
40624;BMP280;26325;48.594;11.650;2023-10-19T17:06:36;94560.59;;;13.84
40624;BMP280;26325;48.594;11.650;2023-10-19T17:09:15;94558.13;;;13.96
40624;BMP280;26325;48.594;11.650;2023-10-19T17:11:51;94566.38;;;13.90
40624;BMP280;26325;48.594;11.650;2023-10-19T17:14:18;94580.72;;;13.87
40624;BMP280;26325;48.594;11.650;2023-10-19T17:16:44;94580.38;;;13.72
40624;BMP280;26325;48.594;11.650;2023-10-19T17:19:12;94586.94;;;13.70
40624;BMP280;26325;48.594;11.650;2023-10-19T17:21:38;94587.97;;;13.60
40624;BMP280;26325;48.594;11.650;2023-10-19T17:24:05;94588.56;;;13.33
40624;BMP280;26325;48.594;11.650;2023-10-19T17:26:30;94580.13;;;13.19
40624;BMP280;26325;48.594;11.650;2023-10-19T17:28:56;94568.88;;;13.15
40624;BMP280;26325;48.594;11.650;2023-10-19T17:31:23;94569.78;;;13.19
40624;BMP280;26325;48.594;11.650;2023-10-19T17:33:51;94571.31;;;13.20
40624;BMP280;26325;48.594;11.650;2023-10-19T17:36:20;94567.34;;;13.14
40624;BMP280;26325;48.594;11.650;2023-10-19T17:38:45;94567.34;;;13.14
40624;BMP280;26325;48.594;11.650;2023-10-19T17:41:11;94573.84;;;13.03
40624;BMP280;26325;48.594;11.650;2023-10-19T17:43:38;94579.78;;;12.95
40624;BMP280;26325;48.594;11.650;2023-10-19T17:46:06;94581.13;;;12.93
40624;BMP280;26325;48.594;11.650;2023-10-19T17:48:32;94585.97;;;12.86
40624;BMP280;26325;48.594;11.650;2023-10-19T17:50:58;94578.75;;;12.75
40624;BMP280;26325;48.594;11.650;2023-10-19T17:53:26;94565.53;;;12.76
40624;BMP280;26325;48.594;11.650;2023-10-19T17:55:52;94559.59;;;12.76
40624;BMP280;26325;48.594;11.650;2023-10-19T17:58:24;94567.31;;;12.68
40624;BMP280;26325;48.594;11.650;2023-10-19T18:00:52;94567.03;;;12.48
40624;BMP280;26325;48.594;11.650;2023-10-19T18:03:17;94561.75;;;12.31
40624;BMP280;26325;48.594;11.650;2023-10-19T18:05:45;94553.91;;;12.36
40624;BMP280;26325;48.594;11.650;2023-10-19T18:08:14;94555.88;;;12.39
40624;BMP280;26325;48.594;11.650;2023-10-19T18:10:42;94549.19;;;12.38
40624;BMP280;26325;48.594;11.650;2023-10-19T18:13:10;94552.22;;;12.40
40624;BMP280;26325;48.594;11.650;2023-10-19T18:15:38;94554.03;;;12.39
40624;BMP280;26325;48.594;11.650;2023-10-19T18:18:04;94543.25;;;12.38
40624;BMP280;26325;48.594;11.650;2023-10-19T18:20:30;94540.94;;;12.36
40624;BMP280;26325;48.594;11.650;2023-10-19T18:22:56;94542.94;;;12.39
40624;BMP280;26325;48.594;11.650;2023-10-19T18:25:27;94540.34;;;12.39
40624;BMP280;26325;48.594;11.650;2023-10-19T18:27:54;94541.56;;;12.41
40624;BMP280;26325;48.594;11.650;2023-10-19T18:30:20;94532.56;;;12.39
40624;BMP280;26325;48.594;11.650;2023-10-19T18:32:48;94530.47;;;12.41
40624;BMP280;26325;48.594;11.650;2023-10-19T18:35:14;94527.41;;;12.39
40624;BMP280;26325;48.594;11.650;2023-10-19T18:37:42;94528.59;;;12.33
40624;BMP280;26325;48.594;11.650;2023-10-19T18:40:08;94522.94;;;12.31
40624;BMP280;26325;48.594;11.650;2023-10-19T18:42:34;94514.31;;;12.36
40624;BMP280;26325;48.594;11.650;2023-10-19T18:45:03;94517.47;;;12.33
40624;BMP280;26325;48.594;11.650;2023-10-19T18:47:31;94509.09;;;12.27
40624;BMP280;26325;48.594;11.650;2023-10-19T18:49:59;94502.97;;;12.23
40624;BMP280;26325;48.594;11.650;2023-10-19T18:52:28;94487.72;;;12.14
40624;BMP280;26325;48.594;11.650;2023-10-19T18:54:54;94479.19;;;12.13
40624;BMP280;26325;48.594;11.650;2023-10-19T18:57:19;94474.31;;;12.12
40624;BMP280;26325;48.594;11.650;2023-10-19T18:59:45;94463.03;;;12.08
40624;BMP280;26325;48.594;11.650;2023-10-19T19:02:10;94459.97;;;12.06
40624;BMP280;26325;48.594;11.650;2023-10-19T19:04:36;94450.69;;;12.05
40624;BMP280;26325;48.594;11.650;2023-10-19T19:07:03;94452.81;;;12.03
40624;BMP280;26325;48.594;11.650;2023-10-19T19:09:29;94444.59;;;12.01
40624;BMP280;26325;48.594;11.650;2023-10-19T19:11:55;94441.06;;;11.97
40624;BMP280;26325;48.594;11.650;2023-10-19T19:14:25;94429.19;;;11.96
40624;BMP280;26325;48.594;11.650;2023-10-19T19:16:51;94444.72;;;11.96
40624;BMP280;26325;48.594;11.650;2023-10-19T19:19:17;94444.41;;;11.98
40624;BMP280;26325;48.594;11.650;2023-10-19T19:21:43;94434.53;;;11.99
40624;BMP280;26325;48.594;11.650;2023-10-19T19:24:10;94435.16;;;12.05
40624;BMP280;26325;48.594;11.650;2023-10-19T19:26:36;94444.75;;;12.04
40624;BMP280;26325;48.594;11.650;2023-10-19T19:29:04;94457.81;;;11.99
40624;BMP280;26325;48.594;11.650;2023-10-19T19:31:32;94473.34;;;11.99
40624;BMP280;26325;48.594;11.650;2023-10-19T19:34:00;94472.47;;;12.04
40624;BMP280;26325;48.594;11.650;2023-10-19T19:36:28;94479.75;;;12.02
40624;BMP280;26325;48.594;11.650;2023-10-19T19:38:54;94480.00;;;11.92
40624;BMP280;26325;48.594;11.650;2023-10-19T19:41:20;94476.03;;;11.86
40624;BMP280;26325;48.594;11.650;2023-10-19T19:43:45;94467.50;;;11.86
40624;BMP280;26325;48.594;11.650;2023-10-19T19:46:11;94462.75;;;11.88
40624;BMP280;26325;48.594;11.650;2023-10-19T19:48:40;94458.53;;;11.92
40624;BMP280;26325;48.594;11.650;2023-10-19T19:51:05;94451.84;;;11.91
40624;BMP280;26325;48.594;11.650;2023-10-19T19:53:34;94452.28;;;11.84
40624;BMP280;26325;48.594;11.650;2023-10-19T19:55:59;94451.94;;;11.78
40624;BMP280;26325;48.594;11.650;2023-10-19T19:58:25;94455.38;;;11.73
40624;BMP280;26325;48.594;11.650;2023-10-19T20:00:51;94440.34;;;11.75
40624;BMP280;26325;48.594;11.650;2023-10-19T20:03:22;94426.47;;;11.71
40624;BMP280;26325;48.594;11.650;2023-10-19T20:05:47;94433.13;;;11.64
40624;BMP280;26325;48.594;11.650;2023-10-19T20:08:13;94434.94;;;11.63
40624;BMP280;26325;48.594;11.650;2023-10-19T20:10:41;94443.19;;;11.65
40624;BMP280;26325;48.594;11.650;2023-10-19T20:13:09;94440.16;;;11.72
40624;BMP280;26325;48.594;11.650;2023-10-19T20:15:35;94444.28;;;11.73
40624;BMP280;26325;48.594;11.650;2023-10-19T20:18:05;94443.81;;;11.71
40624;BMP280;26325;48.594;11.650;2023-10-19T20:20:31;94427.19;;;11.63
40624;BMP280;26325;48.594;11.650;2023-10-19T20:22:57;94419.53;;;11.50
40624;BMP280;26325;48.594;11.650;2023-10-19T20:25:30;94441.13;;;11.54
40624;BMP280;26325;48.594;11.650;2023-10-19T20:27:57;94447.81;;;11.55
40624;BMP280;26325;48.594;11.650;2023-10-19T20:30:28;94444.75;;;11.53
40624;BMP280;26325;48.594;11.650;2023-10-19T20:32:53;94432.72;;;11.49
40624;BMP280;26325;48.594;11.650;2023-10-19T20:35:21;94426.50;;;11.50
40624;BMP280;26325;48.594;11.650;2023-10-19T20:37:47;94424.41;;;11.52
40624;BMP280;26325;48.594;11.650;2023-10-19T20:40:13;94419.53;;;11.50
40624;BMP280;26325;48.594;11.650;2023-10-19T20:42:49;94410.72;;;11.51
40624;BMP280;26325;48.594;11.650;2023-10-19T20:45:20;94409.75;;;11.47
40624;BMP280;26325;48.594;11.650;2023-10-19T20:47:49;94409.75;;;11.47
40624;BMP280;26325;48.594;11.650;2023-10-19T20:50:20;94401.31;;;11.34
40624;BMP280;26325;48.594;11.650;2023-10-19T20:52:46;94397.22;;;11.33
40624;BMP280;26325;48.594;11.650;2023-10-19T20:55:15;94390.53;;;11.32
40624;BMP280;26325;48.594;11.650;2023-10-19T20:57:42;94380.38;;;11.35
40624;BMP280;26325;48.594;11.650;2023-10-19T21:00:09;94380.19;;;11.32
40624;BMP280;26325;48.594;11.650;2023-10-19T21:02:38;94375.03;;;11.32
40624;BMP280;26325;48.594;11.650;2023-10-19T21:05:08;94375.56;;;11.29
40624;BMP280;26325;48.594;11.650;2023-10-19T21:07:40;94371.97;;;11.30
40624;BMP280;26325;48.594;11.650;2023-10-19T21:10:08;94370.19;;;11.39
40624;BMP280;26325;48.594;11.650;2023-10-19T21:12:38;94370.09;;;11.43
40624;BMP280;26325;48.594;11.650;2023-10-19T21:15:14;94365.22;;;11.42
40624;BMP280;26325;48.594;11.650;2023-10-19T21:17:48;94373.72;;;11.43
40624;BMP280;26325;48.594;11.650;2023-10-19T21:20:15;94372.31;;;11.37
40624;BMP280;26325;48.594;11.650;2023-10-19T21:22:49;94371.72;;;11.40
40624;BMP280;26325;48.594;11.650;2023-10-19T21:25:18;94362.91;;;11.41
40624;BMP280;26325;48.594;11.650;2023-10-19T21:27:44;94374.66;;;11.46
40624;BMP280;26325;48.594;11.650;2023-10-19T21:30:14;94362.78;;;11.45
40624;BMP280;26325;48.594;11.650;2023-10-19T21:32:46;94360.66;;;11.47
40624;BMP280;26325;48.594;11.650;2023-10-19T21:35:11;94358.56;;;11.49
40624;BMP280;26325;48.594;11.650;2023-10-19T21:37:37;94347.41;;;11.41
40624;BMP280;26325;48.594;11.650;2023-10-19T21:40:07;94338.75;;;11.45
40624;BMP280;26325;48.594;11.650;2023-10-19T21:42:33;94326.16;;;11.43
40624;BMP280;26325;48.594;11.650;2023-10-19T21:44:58;94330.09;;;11.41
40624;BMP280;26325;48.594;11.650;2023-10-19T21:47:24;94331.47;;;11.47
40624;BMP280;26325;48.594;11.650;2023-10-19T21:49:53;94319.94;;;11.53
40624;BMP280;26325;48.594;11.650;2023-10-19T21:52:19;94319.53;;;11.59
40624;BMP280;26325;48.594;11.650;2023-10-19T21:54:49;94316.97;;;11.59
40624;BMP280;26325;48.594;11.650;2023-10-19T21:57:16;94317.75;;;11.68
40624;BMP280;26325;48.594;11.650;2023-10-19T21:59:42;94306.03;;;11.70
40624;BMP280;26325;48.594;11.650;2023-10-19T22:02:11;94288.41;;;11.72
40624;BMP280;26325;48.594;11.650;2023-10-19T22:04:37;94265.13;;;11.64
40624;BMP280;26325;48.594;11.650;2023-10-19T22:07:04;94232.97;;;11.86
40624;BMP280;26325;48.594;11.650;2023-10-19T22:09:35;94243.88;;;11.75
40624;BMP280;26325;48.594;11.650;2023-10-19T22:12:00;94257.69;;;11.71
40624;BMP280;26325;48.594;11.650;2023-10-19T22:14:28;94251.78;;;11.79
40624;BMP280;26325;48.594;11.650;2023-10-19T22:16:54;94254.34;;;11.79
40624;BMP280;26325;48.594;11.650;2023-10-19T22:19:22;94246.00;;;11.81
40624;BMP280;26325;48.594;11.650;2023-10-19T22:21:47;94233.88;;;11.90
40624;BMP280;26325;48.594;11.650;2023-10-19T22:24:17;94228.38;;;11.83
40624;BMP280;26325;48.594;11.650;2023-10-19T22:26:43;94227.78;;;11.86
40624;BMP280;26325;48.594;11.650;2023-10-19T22:29:08;94225.50;;;11.85
40624;BMP280;26325;48.594;11.650;2023-10-19T22:31:35;94212.09;;;11.83
40624;BMP280;26325;48.594;11.650;2023-10-19T22:34:00;94206.66;;;11.84
40624;BMP280;26325;48.594;11.650;2023-10-19T22:36:26;94204.97;;;11.88
40624;BMP280;26325;48.594;11.650;2023-10-19T22:38:53;94204.97;;;11.88
40624;BMP280;26325;48.594;11.650;2023-10-19T22:41:21;94208.00;;;11.90
40624;BMP280;26325;48.594;11.650;2023-10-19T22:43:48;94194.63;;;11.88
40624;BMP280;26325;48.594;11.650;2023-10-19T22:46:16;94191.44;;;11.91
40624;BMP280;26325;48.594;11.650;2023-10-19T22:48:44;94185.66;;;11.94
40624;BMP280;26325;48.594;11.650;2023-10-19T22:51:09;94185.19;;;11.92
40624;BMP280;26325;48.594;11.650;2023-10-19T22:53:38;94184.91;;;11.94
40624;BMP280;26325;48.594;11.650;2023-10-19T22:56:06;94187.91;;;11.87
40624;BMP280;26325;48.594;11.650;2023-10-19T22:58:31;94178.66;;;11.86
40624;BMP280;26325;48.594;11.650;2023-10-19T23:00:59;94184.44;;;11.83
40624;BMP280;26325;48.594;11.650;2023-10-19T23:03:25;94185.50;;;11.82
40624;BMP280;26325;48.594;11.650;2023-10-19T23:05:50;94182.44;;;11.80
40624;BMP280;26325;48.594;11.650;2023-10-19T23:08:18;94180.16;;;11.79
40624;BMP280;26325;48.594;11.650;2023-10-19T23:10:45;94178.50;;;11.75
40624;BMP280;26325;48.594;11.650;2023-10-19T23:13:15;94169.78;;;11.62
40624;BMP280;26325;48.594;11.650;2023-10-19T23:15:47;94163.44;;;11.68
40624;BMP280;26325;48.594;11.650;2023-10-19T23:18:14;94158.25;;;11.68
40624;BMP280;26325;48.594;11.650;2023-10-19T23:20:46;94149.28;;;11.66
40624;BMP280;26325;48.594;11.650;2023-10-19T23:23:20;94153.38;;;11.59
40624;BMP280;26325;48.594;11.650;2023-10-19T23:25:48;94149.38;;;11.44
40624;BMP280;26325;48.594;11.650;2023-10-19T23:28:26;94145.28;;;11.43
40624;BMP280;26325;48.594;11.650;2023-10-19T23:30:56;94151.06;;;11.41
40624;BMP280;26325;48.594;11.650;2023-10-19T23:33:36;94143.91;;;11.46
40624;BMP280;26325;48.594;11.650;2023-10-19T23:36:02;94151.38;;;11.47
40624;BMP280;26325;48.594;11.650;2023-10-19T23:38:28;94152.88;;;11.48
40624;BMP280;26325;48.594;11.650;2023-10-19T23:40:53;94151.38;;;11.47
40624;BMP280;26325;48.594;11.650;2023-10-19T23:43:21;94156.38;;;11.44
40624;BMP280;26325;48.594;11.650;2023-10-19T23:45:49;94151.34;;;11.39
40624;BMP280;26325;48.594;11.650;2023-10-19T23:48:15;94147.41;;;11.42
40624;BMP280;26325;48.594;11.650;2023-10-19T23:50:51;94135.09;;;11.47
40624;BMP280;26325;48.594;11.650;2023-10-19T23:53:17;94129.63;;;11.48
40624;BMP280;26325;48.594;11.650;2023-10-19T23:55:44;94127.06;;;11.48
40624;BMP280;26325;48.594;11.650;2023-10-19T23:58:11;94124.75;;;11.47
